sensor_id;sensor_type;location;lat;lon;timestamp;pressure;altitude;pressure_sealevel;temperature
15079;BMP180;6932;51.438;5.470;2023-12-04T00:01:21;100854.00;;;7.50
15079;BMP180;6932;51.438;5.470;2023-12-04T00:03:47;100847.00;;;7.50
15079;BMP180;6932;51.438;5.470;2023-12-04T00:06:13;100839.00;;;7.50
15079;BMP180;6932;51.438;5.470;2023-12-04T00:08:40;100850.00;;;7.50
15079;BMP180;6932;51.438;5.470;2023-12-04T00:11:06;100853.00;;;7.50
15079;BMP180;6932;51.438;5.470;2023-12-04T00:13:33;100835.00;;;7.50
15079;BMP180;6932;51.438;5.470;2023-12-04T00:15:59;100845.00;;;7.50
15079;BMP180;6932;51.438;5.470;2023-12-04T00:18:25;100837.00;;;7.50
15079;BMP180;6932;51.438;5.470;2023-12-04T00:20:51;100825.00;;;7.50
15079;BMP180;6932;51.438;5.470;2023-12-04T00:23:16;100827.00;;;7.50
15079;BMP180;6932;51.438;5.470;2023-12-04T00:25:42;100831.00;;;7.50
15079;BMP180;6932;51.438;5.470;2023-12-04T00:28:08;100828.00;;;7.50
15079;BMP180;6932;51.438;5.470;2023-12-04T00:30:34;100825.00;;;7.50
15079;BMP180;6932;51.438;5.470;2023-12-04T00:32:59;100822.00;;;7.50
15079;BMP180;6932;51.438;5.470;2023-12-04T00:35:25;100819.00;;;7.50
15079;BMP180;6932;51.438;5.470;2023-12-04T00:37:51;100812.00;;;7.50
15079;BMP180;6932;51.438;5.470;2023-12-04T00:40:17;100817.00;;;7.50
15079;BMP180;6932;51.438;5.470;2023-12-04T00:42:42;100816.00;;;7.50
15079;BMP180;6932;51.438;5.470;2023-12-04T00:45:09;100809.00;;;7.50
15079;BMP180;6932;51.438;5.470;2023-12-04T00:47:34;100806.00;;;7.50
15079;BMP180;6932;51.438;5.470;2023-12-04T00:50:00;100815.00;;;7.50
15079;BMP180;6932;51.438;5.470;2023-12-04T00:52:26;100811.00;;;7.50
15079;BMP180;6932;51.438;5.470;2023-12-04T00:54:52;100799.00;;;7.60
15079;BMP180;6932;51.438;5.470;2023-12-04T00:57:17;100792.00;;;7.50
15079;BMP180;6932;51.438;5.470;2023-12-04T00:59:43;100794.00;;;7.60
15079;BMP180;6932;51.438;5.470;2023-12-04T01:02:09;100788.00;;;7.60
15079;BMP180;6932;51.438;5.470;2023-12-04T01:04:34;100782.00;;;7.60
15079;BMP180;6932;51.438;5.470;2023-12-04T01:07:01;100776.00;;;7.60
15079;BMP180;6932;51.438;5.470;2023-12-04T01:09:26;100781.00;;;7.60
15079;BMP180;6932;51.438;5.470;2023-12-04T01:11:53;100780.00;;;7.60
15079;BMP180;6932;51.438;5.470;2023-12-04T01:14:20;100778.00;;;7.60
15079;BMP180;6932;51.438;5.470;2023-12-04T01:16:46;100781.00;;;7.60
15079;BMP180;6932;51.438;5.470;2023-12-04T01:19:12;100775.00;;;7.60
15079;BMP180;6932;51.438;5.470;2023-12-04T01:21:38;100771.00;;;7.60
15079;BMP180;6932;51.438;5.470;2023-12-04T01:24:04;100768.00;;;7.60
15079;BMP180;6932;51.438;5.470;2023-12-04T01:26:30;100758.00;;;7.60
15079;BMP180;6932;51.438;5.470;2023-12-04T01:28:56;100766.00;;;7.60
15079;BMP180;6932;51.438;5.470;2023-12-04T01:31:22;100763.00;;;7.60
15079;BMP180;6932;51.438;5.470;2023-12-04T01:33:48;100758.00;;;7.60
15079;BMP180;6932;51.438;5.470;2023-12-04T01:36:14;100754.00;;;7.60
15079;BMP180;6932;51.438;5.470;2023-12-04T01:38:39;100748.00;;;7.60
15079;BMP180;6932;51.438;5.470;2023-12-04T01:41:05;100751.00;;;7.60
15079;BMP180;6932;51.438;5.470;2023-12-04T01:43:31;100752.00;;;7.70
15079;BMP180;6932;51.438;5.470;2023-12-04T01:46:00;100744.00;;;7.70
15079;BMP180;6932;51.438;5.470;2023-12-04T01:48:28;100750.00;;;7.70
15079;BMP180;6932;51.438;5.470;2023-12-04T01:50:55;100747.00;;;7.70
15079;BMP180;6932;51.438;5.470;2023-12-04T01:53:22;100750.00;;;7.70
15079;BMP180;6932;51.438;5.470;2023-12-04T01:55:49;100735.00;;;7.70
15079;BMP180;6932;51.438;5.470;2023-12-04T01:58:15;100739.00;;;7.70
15079;BMP180;6932;51.438;5.470;2023-12-04T02:00:41;100729.00;;;7.70
15079;BMP180;6932;51.438;5.470;2023-12-04T02:03:09;100716.00;;;7.70
15079;BMP180;6932;51.438;5.470;2023-12-04T02:05:36;100720.00;;;7.70
15079;BMP180;6932;51.438;5.470;2023-12-04T02:08:04;100717.00;;;7.80
15079;BMP180;6932;51.438;5.470;2023-12-04T02:10:29;100709.00;;;7.80
15079;BMP180;6932;51.438;5.470;2023-12-04T02:12:55;100709.00;;;7.80
15079;BMP180;6932;51.438;5.470;2023-12-04T02:15:21;100716.00;;;7.80
15079;BMP180;6932;51.438;5.470;2023-12-04T02:17:47;100709.00;;;7.80
15079;BMP180;6932;51.438;5.470;2023-12-04T02:20:14;100707.00;;;7.80
15079;BMP180;6932;51.438;5.470;2023-12-04T02:22:40;100707.00;;;7.80
15079;BMP180;6932;51.438;5.470;2023-12-04T02:25:09;100712.00;;;7.80
15079;BMP180;6932;51.438;5.470;2023-12-04T02:27:45;100708.00;;;7.80
15079;BMP180;6932;51.438;5.470;2023-12-04T02:30:13;100697.00;;;7.80
15079;BMP180;6932;51.438;5.470;2023-12-04T02:32:46;100696.00;;;7.80
15079;BMP180;6932;51.438;5.470;2023-12-04T02:35:16;100699.00;;;7.80
15079;BMP180;6932;51.438;5.470;2023-12-04T02:37:45;100689.00;;;7.80
15079;BMP180;6932;51.438;5.470;2023-12-04T02:40:12;100696.00;;;7.80
15079;BMP180;6932;51.438;5.470;2023-12-04T02:42:39;100694.00;;;7.80
15079;BMP180;6932;51.438;5.470;2023-12-04T02:45:05;100680.00;;;7.80
15079;BMP180;6932;51.438;5.470;2023-12-04T02:47:31;100682.00;;;7.80
15079;BMP180;6932;51.438;5.470;2023-12-04T02:49:57;100670.00;;;7.80
15079;BMP180;6932;51.438;5.470;2023-12-04T02:52:23;100666.00;;;7.80
15079;BMP180;6932;51.438;5.470;2023-12-04T02:54:48;100661.00;;;7.80
15079;BMP180;6932;51.438;5.470;2023-12-04T02:57:14;100669.00;;;7.80
15079;BMP180;6932;51.438;5.470;2023-12-04T02:59:40;100655.00;;;7.80
15079;BMP180;6932;51.438;5.470;2023-12-04T03:02:05;100647.00;;;7.80
15079;BMP180;6932;51.438;5.470;2023-12-04T03:04:32;100647.00;;;7.80
15079;BMP180;6932;51.438;5.470;2023-12-04T03:06:57;100650.00;;;7.80
15079;BMP180;6932;51.438;5.470;2023-12-04T03:09:23;100655.00;;;7.80
15079;BMP180;6932;51.438;5.470;2023-12-04T03:11:49;100649.00;;;7.80
15079;BMP180;6932;51.438;5.470;2023-12-04T03:14:15;100647.00;;;7.80
15079;BMP180;6932;51.438;5.470;2023-12-04T03:16:40;100637.00;;;7.80
15079;BMP180;6932;51.438;5.470;2023-12-04T03:19:06;100629.00;;;7.80
15079;BMP180;6932;51.438;5.470;2023-12-04T03:21:32;100629.00;;;7.80
15079;BMP180;6932;51.438;5.470;2023-12-04T03:23:58;100628.00;;;7.80
15079;BMP180;6932;51.438;5.470;2023-12-04T03:26:24;100619.00;;;7.80
15079;BMP180;6932;51.438;5.470;2023-12-04T03:28:49;100623.00;;;7.80
15079;BMP180;6932;51.438;5.470;2023-12-04T03:31:15;100613.00;;;7.80
15079;BMP180;6932;51.438;5.470;2023-12-04T03:33:41;100607.00;;;7.80
15079;BMP180;6932;51.438;5.470;2023-12-04T03:36:07;100613.00;;;7.80
15079;BMP180;6932;51.438;5.470;2023-12-04T03:38:33;100601.00;;;7.80
15079;BMP180;6932;51.438;5.470;2023-12-04T03:40:59;100603.00;;;7.80
15079;BMP180;6932;51.438;5.470;2023-12-04T03:43:25;100590.00;;;7.80
15079;BMP180;6932;51.438;5.470;2023-12-04T03:45:50;100586.00;;;7.80
15079;BMP180;6932;51.438;5.470;2023-12-04T03:48:16;100590.00;;;7.80
15079;BMP180;6932;51.438;5.470;2023-12-04T03:50:42;100580.00;;;7.80
15079;BMP180;6932;51.438;5.470;2023-12-04T03:53:07;100591.00;;;7.80
15079;BMP180;6932;51.438;5.470;2023-12-04T03:55:33;100576.00;;;7.80
15079;BMP180;6932;51.438;5.470;2023-12-04T03:57:59;100573.00;;;7.80
15079;BMP180;6932;51.438;5.470;2023-12-04T04:00:25;100571.00;;;7.80
15079;BMP180;6932;51.438;5.470;2023-12-04T04:02:51;100564.00;;;7.80
15079;BMP180;6932;51.438;5.470;2023-12-04T04:05:16;100570.00;;;7.80
15079;BMP180;6932;51.438;5.470;2023-12-04T04:07:42;100567.00;;;7.80
15079;BMP180;6932;51.438;5.470;2023-12-04T04:10:08;100566.00;;;7.80
15079;BMP180;6932;51.438;5.470;2023-12-04T04:12:34;100556.00;;;7.80
15079;BMP180;6932;51.438;5.470;2023-12-04T04:15:01;100550.00;;;7.80
15079;BMP180;6932;51.438;5.470;2023-12-04T04:17:27;100534.00;;;7.80
15079;BMP180;6932;51.438;5.470;2023-12-04T04:19:53;100543.00;;;7.80
15079;BMP180;6932;51.438;5.470;2023-12-04T04:22:22;100539.00;;;7.70
15079;BMP180;6932;51.438;5.470;2023-12-04T04:24:49;100534.00;;;7.70
15079;BMP180;6932;51.438;5.470;2023-12-04T04:27:15;100533.00;;;7.70
15079;BMP180;6932;51.438;5.470;2023-12-04T04:29:41;100532.00;;;7.70
15079;BMP180;6932;51.438;5.470;2023-12-04T04:32:07;100533.00;;;7.70
15079;BMP180;6932;51.438;5.470;2023-12-04T04:34:33;100535.00;;;7.70
15079;BMP180;6932;51.438;5.470;2023-12-04T04:36:58;100516.00;;;7.70
15079;BMP180;6932;51.438;5.470;2023-12-04T04:39:24;100526.00;;;7.70
15079;BMP180;6932;51.438;5.470;2023-12-04T04:41:50;100518.00;;;7.70
15079;BMP180;6932;51.438;5.470;2023-12-04T04:44:16;100517.00;;;7.70
15079;BMP180;6932;51.438;5.470;2023-12-04T04:46:41;100517.00;;;7.70
15079;BMP180;6932;51.438;5.470;2023-12-04T04:49:07;100510.00;;;7.60
15079;BMP180;6932;51.438;5.470;2023-12-04T04:51:34;100528.00;;;7.60
15079;BMP180;6932;51.438;5.470;2023-12-04T04:54:03;100516.00;;;7.60
15079;BMP180;6932;51.438;5.470;2023-12-04T04:56:29;100521.00;;;7.60
15079;BMP180;6932;51.438;5.470;2023-12-04T04:58:55;100510.00;;;7.60
15079;BMP180;6932;51.438;5.470;2023-12-04T05:01:21;100510.00;;;7.60
15079;BMP180;6932;51.438;5.470;2023-12-04T05:03:47;100516.00;;;7.60
15079;BMP180;6932;51.438;5.470;2023-12-04T05:06:13;100520.00;;;7.60
15079;BMP180;6932;51.438;5.470;2023-12-04T05:08:39;100514.00;;;7.60
15079;BMP180;6932;51.438;5.470;2023-12-04T05:11:05;100509.00;;;7.60
15079;BMP180;6932;51.438;5.470;2023-12-04T05:13:31;100505.00;;;7.60
15079;BMP180;6932;51.438;5.470;2023-12-04T05:15:57;100501.00;;;7.60
15079;BMP180;6932;51.438;5.470;2023-12-04T05:18:22;100509.00;;;7.60
15079;BMP180;6932;51.438;5.470;2023-12-04T05:20:48;100490.00;;;7.60
15079;BMP180;6932;51.438;5.470;2023-12-04T05:23:14;100496.00;;;7.60
15079;BMP180;6932;51.438;5.470;2023-12-04T05:25:39;100493.00;;;7.60
15079;BMP180;6932;51.438;5.470;2023-12-04T05:28:05;100488.00;;;7.60
15079;BMP180;6932;51.438;5.470;2023-12-04T05:30:31;100482.00;;;7.60
15079;BMP180;6932;51.438;5.470;2023-12-04T05:32:56;100471.00;;;7.60
15079;BMP180;6932;51.438;5.470;2023-12-04T05:35:22;100471.00;;;7.60
15079;BMP180;6932;51.438;5.470;2023-12-04T05:37:48;100473.00;;;7.60
15079;BMP180;6932;51.438;5.470;2023-12-04T05:40:14;100466.00;;;7.50
15079;BMP180;6932;51.438;5.470;2023-12-04T05:42:40;100467.00;;;7.60
15079;BMP180;6932;51.438;5.470;2023-12-04T05:45:06;100462.00;;;7.50
15079;BMP180;6932;51.438;5.470;2023-12-04T05:47:33;100458.00;;;7.60
15079;BMP180;6932;51.438;5.470;2023-12-04T05:50:00;100469.00;;;7.60
15079;BMP180;6932;51.438;5.470;2023-12-04T05:52:26;100461.00;;;7.60
15079;BMP180;6932;51.438;5.470;2023-12-04T05:54:51;100458.00;;;7.60
15079;BMP180;6932;51.438;5.470;2023-12-04T05:57:17;100453.00;;;7.60
15079;BMP180;6932;51.438;5.470;2023-12-04T05:59:43;100458.00;;;7.50
15079;BMP180;6932;51.438;5.470;2023-12-04T06:02:09;100460.00;;;7.50
15079;BMP180;6932;51.438;5.470;2023-12-04T06:04:35;100458.00;;;7.60
15079;BMP180;6932;51.438;5.470;2023-12-04T06:07:00;100450.00;;;7.60
15079;BMP180;6932;51.438;5.470;2023-12-04T06:09:26;100447.00;;;7.60
15079;BMP180;6932;51.438;5.470;2023-12-04T06:11:52;100455.00;;;7.60
15079;BMP180;6932;51.438;5.470;2023-12-04T06:14:17;100433.00;;;7.60
15079;BMP180;6932;51.438;5.470;2023-12-04T06:16:43;100429.00;;;7.60
15079;BMP180;6932;51.438;5.470;2023-12-04T06:19:08;100426.00;;;7.60
15079;BMP180;6932;51.438;5.470;2023-12-04T06:21:34;100426.00;;;7.60
15079;BMP180;6932;51.438;5.470;2023-12-04T06:24:00;100418.00;;;7.60
15079;BMP180;6932;51.438;5.470;2023-12-04T06:26:26;100408.00;;;7.60
15079;BMP180;6932;51.438;5.470;2023-12-04T06:28:53;100401.00;;;7.60
15079;BMP180;6932;51.438;5.470;2023-12-04T06:31:19;100404.00;;;7.60
15079;BMP180;6932;51.438;5.470;2023-12-04T06:33:45;100395.00;;;7.60
15079;BMP180;6932;51.438;5.470;2023-12-04T06:36:13;100399.00;;;7.60
15079;BMP180;6932;51.438;5.470;2023-12-04T06:38:40;100382.00;;;7.60
15079;BMP180;6932;51.438;5.470;2023-12-04T06:41:08;100383.00;;;7.60
15079;BMP180;6932;51.438;5.470;2023-12-04T06:43:34;100369.00;;;7.60
15079;BMP180;6932;51.438;5.470;2023-12-04T06:46:00;100372.00;;;7.60
15079;BMP180;6932;51.438;5.470;2023-12-04T06:48:26;100366.00;;;7.60
15079;BMP180;6932;51.438;5.470;2023-12-04T06:50:53;100361.00;;;7.60
15079;BMP180;6932;51.438;5.470;2023-12-04T06:53:18;100302.00;;;7.40
15079;BMP180;6932;51.438;5.470;2023-12-04T06:55:44;100309.00;;;7.00
15079;BMP180;6932;51.438;5.470;2023-12-04T06:58:10;100291.00;;;6.80
15079;BMP180;6932;51.438;5.470;2023-12-04T07:00:36;100310.00;;;6.60
15079;BMP180;6932;51.438;5.470;2023-12-04T07:03:02;100315.00;;;6.40
15079;BMP180;6932;51.438;5.470;2023-12-04T07:05:28;100304.00;;;6.30
15079;BMP180;6932;51.438;5.470;2023-12-04T07:07:53;100311.00;;;6.10
15079;BMP180;6932;51.438;5.470;2023-12-04T07:10:19;100316.00;;;6.10
15079;BMP180;6932;51.438;5.470;2023-12-04T07:12:45;100301.00;;;6.00
15079;BMP180;6932;51.438;5.470;2023-12-04T07:15:11;100366.00;;;6.00
15079;BMP180;6932;51.438;5.470;2023-12-04T07:17:40;100370.00;;;6.20
15079;BMP180;6932;51.438;5.470;2023-12-04T07:20:06;100354.00;;;6.40
15079;BMP180;6932;51.438;5.470;2023-12-04T07:22:33;100369.00;;;6.50
15079;BMP180;6932;51.438;5.470;2023-12-04T07:24:59;100368.00;;;6.70
15079;BMP180;6932;51.438;5.470;2023-12-04T07:27:25;100358.00;;;6.80
15079;BMP180;6932;51.438;5.470;2023-12-04T07:29:51;100367.00;;;7.00
15079;BMP180;6932;51.438;5.470;2023-12-04T07:32:17;100368.00;;;7.10
15079;BMP180;6932;51.438;5.470;2023-12-04T07:34:44;100368.00;;;7.20
15079;BMP180;6932;51.438;5.470;2023-12-04T07:37:09;100374.00;;;7.20
15079;BMP180;6932;51.438;5.470;2023-12-04T07:39:35;100387.00;;;7.30
15079;BMP180;6932;51.438;5.470;2023-12-04T07:42:01;100381.00;;;7.40
15079;BMP180;6932;51.438;5.470;2023-12-04T07:44:28;100372.00;;;7.40
15079;BMP180;6932;51.438;5.470;2023-12-04T07:46:54;100380.00;;;7.50
15079;BMP180;6932;51.438;5.470;2023-12-04T07:49:19;100384.00;;;7.50
15079;BMP180;6932;51.438;5.470;2023-12-04T07:51:45;100368.00;;;7.50
15079;BMP180;6932;51.438;5.470;2023-12-04T07:54:11;100370.00;;;7.60
15079;BMP180;6932;51.438;5.470;2023-12-04T07:56:37;100354.00;;;7.60
15079;BMP180;6932;51.438;5.470;2023-12-04T07:59:03;100354.00;;;7.60
15079;BMP180;6932;51.438;5.470;2023-12-04T08:01:28;100352.00;;;7.60
15079;BMP180;6932;51.438;5.470;2023-12-04T08:03:54;100344.00;;;7.60
15079;BMP180;6932;51.438;5.470;2023-12-04T08:06:20;100353.00;;;7.60
15079;BMP180;6932;51.438;5.470;2023-12-04T08:08:45;100352.00;;;7.70
15079;BMP180;6932;51.438;5.470;2023-12-04T08:11:11;100345.00;;;7.70
15079;BMP180;6932;51.438;5.470;2023-12-04T08:13:38;100339.00;;;7.70
15079;BMP180;6932;51.438;5.470;2023-12-04T08:16:13;100332.00;;;7.70
15079;BMP180;6932;51.438;5.470;2023-12-04T08:18:39;100335.00;;;7.70
15079;BMP180;6932;51.438;5.470;2023-12-04T08:21:05;100340.00;;;7.70
15079;BMP180;6932;51.438;5.470;2023-12-04T08:23:31;100352.00;;;7.70
15079;BMP180;6932;51.438;5.470;2023-12-04T08:25:57;100346.00;;;7.70
15079;BMP180;6932;51.438;5.470;2023-12-04T08:28:23;100331.00;;;7.70
15079;BMP180;6932;51.438;5.470;2023-12-04T08:30:49;100331.00;;;7.70
15079;BMP180;6932;51.438;5.470;2023-12-04T08:33:14;100322.00;;;7.70
15079;BMP180;6932;51.438;5.470;2023-12-04T08:35:40;100315.00;;;7.80
15079;BMP180;6932;51.438;5.470;2023-12-04T08:38:06;100318.00;;;7.80
15079;BMP180;6932;51.438;5.470;2023-12-04T08:40:32;100322.00;;;7.80
15079;BMP180;6932;51.438;5.470;2023-12-04T08:42:58;100304.00;;;7.80
15079;BMP180;6932;51.438;5.470;2023-12-04T08:45:24;100303.00;;;7.80
15079;BMP180;6932;51.438;5.470;2023-12-04T08:47:49;100303.00;;;7.80
15079;BMP180;6932;51.438;5.470;2023-12-04T08:50:16;100294.00;;;7.80
15079;BMP180;6932;51.438;5.470;2023-12-04T08:52:42;100284.00;;;7.80
15079;BMP180;6932;51.438;5.470;2023-12-04T08:55:09;100284.00;;;7.90
15079;BMP180;6932;51.438;5.470;2023-12-04T08:57:35;100277.00;;;7.90
15079;BMP180;6932;51.438;5.470;2023-12-04T09:00:01;100277.00;;;7.90
15079;BMP180;6932;51.438;5.470;2023-12-04T09:02:29;100281.00;;;7.90
15079;BMP180;6932;51.438;5.470;2023-12-04T09:04:54;100285.00;;;7.90
15079;BMP180;6932;51.438;5.470;2023-12-04T09:07:20;100284.00;;;7.90
15079;BMP180;6932;51.438;5.470;2023-12-04T09:09:46;100283.00;;;7.90
15079;BMP180;6932;51.438;5.470;2023-12-04T09:12:11;100282.00;;;7.90
15079;BMP180;6932;51.438;5.470;2023-12-04T09:14:37;100271.00;;;8.00
15079;BMP180;6932;51.438;5.470;2023-12-04T09:17:03;100263.00;;;8.00
15079;BMP180;6932;51.438;5.470;2023-12-04T09:19:30;100271.00;;;8.00
15079;BMP180;6932;51.438;5.470;2023-12-04T09:21:56;100264.00;;;8.00
15079;BMP180;6932;51.438;5.470;2023-12-04T09:24:23;100248.00;;;8.00
15079;BMP180;6932;51.438;5.470;2023-12-04T09:26:49;100268.00;;;8.00
15079;BMP180;6932;51.438;5.470;2023-12-04T09:29:15;100259.00;;;8.00
15079;BMP180;6932;51.438;5.470;2023-12-04T09:31:42;100267.00;;;8.00
15079;BMP180;6932;51.438;5.470;2023-12-04T09:34:09;100270.00;;;8.10
15079;BMP180;6932;51.438;5.470;2023-12-04T09:36:34;100279.00;;;8.10
15079;BMP180;6932;51.438;5.470;2023-12-04T09:39:00;100277.00;;;8.40
15079;BMP180;6932;51.438;5.470;2023-12-04T09:41:26;100281.00;;;8.80
15079;BMP180;6932;51.438;5.470;2023-12-04T09:43:53;100275.00;;;9.20
15079;BMP180;6932;51.438;5.470;2023-12-04T09:46:20;100279.00;;;9.60
15079;BMP180;6932;51.438;5.470;2023-12-04T09:48:46;100276.00;;;9.50
15079;BMP180;6932;51.438;5.470;2023-12-04T09:51:14;100264.00;;;9.40
15079;BMP180;6932;51.438;5.470;2023-12-04T09:53:40;100262.00;;;9.30
15079;BMP180;6932;51.438;5.470;2023-12-04T09:56:08;100259.00;;;9.10
15079;BMP180;6932;51.438;5.470;2023-12-04T09:58:39;100261.00;;;8.90
15079;BMP180;6932;51.438;5.470;2023-12-04T10:01:07;100257.00;;;8.80
15079;BMP180;6932;51.438;5.470;2023-12-04T10:03:34;100258.00;;;8.70
15079;BMP180;6932;51.438;5.470;2023-12-04T10:06:01;100263.00;;;8.60
15079;BMP180;6932;51.438;5.470;2023-12-04T10:08:27;100251.00;;;8.60
15079;BMP180;6932;51.438;5.470;2023-12-04T10:10:53;100246.00;;;8.50
15079;BMP180;6932;51.438;5.470;2023-12-04T10:13:19;100240.00;;;8.50
15079;BMP180;6932;51.438;5.470;2023-12-04T10:15:51;100247.00;;;8.40
15079;BMP180;6932;51.438;5.470;2023-12-04T10:18:28;100233.00;;;8.30
15079;BMP180;6932;51.438;5.470;2023-12-04T10:20:58;100229.00;;;8.30
15079;BMP180;6932;51.438;5.470;2023-12-04T10:23:42;100228.00;;;8.30
15079;BMP180;6932;51.438;5.470;2023-12-04T10:26:08;100216.00;;;8.30
15079;BMP180;6932;51.438;5.470;2023-12-04T10:28:35;100210.00;;;8.30
15079;BMP180;6932;51.438;5.470;2023-12-04T10:31:01;100202.00;;;8.30
15079;BMP180;6932;51.438;5.470;2023-12-04T10:33:29;100211.00;;;8.30
15079;BMP180;6932;51.438;5.470;2023-12-04T10:35:56;100196.00;;;8.30
15079;BMP180;6932;51.438;5.470;2023-12-04T10:38:22;100195.00;;;8.30
15079;BMP180;6932;51.438;5.470;2023-12-04T10:40:48;100199.00;;;8.30
15079;BMP180;6932;51.438;5.470;2023-12-04T10:45:45;100183.00;;;8.30
15079;BMP180;6932;51.438;5.470;2023-12-04T10:48:12;100178.00;;;8.30
15079;BMP180;6932;51.438;5.470;2023-12-04T10:50:44;100174.00;;;8.30
15079;BMP180;6932;51.438;5.470;2023-12-04T10:53:12;100168.00;;;8.30
15079;BMP180;6932;51.438;5.470;2023-12-04T10:55:40;100161.00;;;8.30
15079;BMP180;6932;51.438;5.470;2023-12-04T10:58:14;100154.00;;;8.30
15079;BMP180;6932;51.438;5.470;2023-12-04T11:00:46;100162.00;;;8.40
15079;BMP180;6932;51.438;5.470;2023-12-04T11:03:31;100157.00;;;8.30
15079;BMP180;6932;51.438;5.470;2023-12-04T11:06:02;100147.00;;;8.40
15079;BMP180;6932;51.438;5.470;2023-12-04T11:08:33;100147.00;;;8.40
15079;BMP180;6932;51.438;5.470;2023-12-04T11:11:06;100137.00;;;8.40
15079;BMP180;6932;51.438;5.470;2023-12-04T11:13:39;100138.00;;;8.50
15079;BMP180;6932;51.438;5.470;2023-12-04T11:16:30;100137.00;;;8.40
15079;BMP180;6932;51.438;5.470;2023-12-04T11:19:32;100146.00;;;8.40
15079;BMP180;6932;51.438;5.470;2023-12-04T11:22:02;100137.00;;;8.50
15079;BMP180;6932;51.438;5.470;2023-12-04T11:24:28;100156.00;;;8.50
15079;BMP180;6932;51.438;5.470;2023-12-04T11:26:55;100130.00;;;8.50
15079;BMP180;6932;51.438;5.470;2023-12-04T11:29:23;100117.00;;;8.60
15079;BMP180;6932;51.438;5.470;2023-12-04T11:31:49;100119.00;;;8.60
15079;BMP180;6932;51.438;5.470;2023-12-04T11:34:15;100116.00;;;8.60
15079;BMP180;6932;51.438;5.470;2023-12-04T11:36:40;100110.00;;;8.60
15079;BMP180;6932;51.438;5.470;2023-12-04T11:39:10;100108.00;;;8.60
15079;BMP180;6932;51.438;5.470;2023-12-04T11:41:37;100098.00;;;8.70
15079;BMP180;6932;51.438;5.470;2023-12-04T11:44:03;100085.00;;;8.70
15079;BMP180;6932;51.438;5.470;2023-12-04T11:46:30;100080.00;;;8.70
15079;BMP180;6932;51.438;5.470;2023-12-04T11:51:55;100080.00;;;8.60
15079;BMP180;6932;51.438;5.470;2023-12-04T11:54:23;100080.00;;;8.60
15079;BMP180;6932;51.438;5.470;2023-12-04T11:57:20;100083.00;;;8.60
15079;BMP180;6932;51.438;5.470;2023-12-04T11:59:47;100067.00;;;8.60
15079;BMP180;6932;51.438;5.470;2023-12-04T12:02:15;100062.00;;;8.60
15079;BMP180;6932;51.438;5.470;2023-12-04T12:04:40;100053.00;;;8.60
15079;BMP180;6932;51.438;5.470;2023-12-04T12:07:06;100046.00;;;8.60
15079;BMP180;6932;51.438;5.470;2023-12-04T12:09:35;100033.00;;;8.50
15079;BMP180;6932;51.438;5.470;2023-12-04T12:12:04;100037.00;;;8.60
15079;BMP180;6932;51.438;5.470;2023-12-04T12:14:31;100033.00;;;8.60
15079;BMP180;6932;51.438;5.470;2023-12-04T12:16:59;100026.00;;;8.50
15079;BMP180;6932;51.438;5.470;2023-12-04T12:19:26;100010.00;;;8.60
15079;BMP180;6932;51.438;5.470;2023-12-04T12:21:51;100008.00;;;8.60
15079;BMP180;6932;51.438;5.470;2023-12-04T12:24:18;100000.00;;;8.50
15079;BMP180;6932;51.438;5.470;2023-12-04T12:26:44;99995.00;;;8.50
15079;BMP180;6932;51.438;5.470;2023-12-04T12:29:11;100000.00;;;8.50
15079;BMP180;6932;51.438;5.470;2023-12-04T12:31:37;100001.00;;;8.50
15079;BMP180;6932;51.438;5.470;2023-12-04T12:34:03;99997.00;;;8.50
15079;BMP180;6932;51.438;5.470;2023-12-04T12:36:30;99999.00;;;8.50
15079;BMP180;6932;51.438;5.470;2023-12-04T12:39:00;100004.00;;;8.50
15079;BMP180;6932;51.438;5.470;2023-12-04T12:41:26;99981.00;;;8.50
15079;BMP180;6932;51.438;5.470;2023-12-04T12:43:52;99987.00;;;8.50
15079;BMP180;6932;51.438;5.470;2023-12-04T12:46:18;99982.00;;;8.50
15079;BMP180;6932;51.438;5.470;2023-12-04T12:48:46;99992.00;;;8.50
15079;BMP180;6932;51.438;5.470;2023-12-04T12:51:13;99979.00;;;8.50
15079;BMP180;6932;51.438;5.470;2023-12-04T12:53:39;99976.00;;;8.50
15079;BMP180;6932;51.438;5.470;2023-12-04T12:56:05;99983.00;;;8.50
15079;BMP180;6932;51.438;5.470;2023-12-04T12:58:31;99969.00;;;8.50
15079;BMP180;6932;51.438;5.470;2023-12-04T13:01:00;99968.00;;;8.50
15079;BMP180;6932;51.438;5.470;2023-12-04T13:03:28;99968.00;;;8.50
15079;BMP180;6932;51.438;5.470;2023-12-04T13:05:53;99966.00;;;8.50
15079;BMP180;6932;51.438;5.470;2023-12-04T13:08:19;99955.00;;;8.50
15079;BMP180;6932;51.438;5.470;2023-12-04T13:10:45;99941.00;;;8.60
15079;BMP180;6932;51.438;5.470;2023-12-04T13:13:14;99943.00;;;8.50
15079;BMP180;6932;51.438;5.470;2023-12-04T13:15:41;99942.00;;;8.60
15079;BMP180;6932;51.438;5.470;2023-12-04T13:18:08;99930.00;;;8.60
15079;BMP180;6932;51.438;5.470;2023-12-04T13:20:34;99924.00;;;8.60
15079;BMP180;6932;51.438;5.470;2023-12-04T13:23:00;99920.00;;;8.60
15079;BMP180;6932;51.438;5.470;2023-12-04T13:25:26;99915.00;;;8.60
15079;BMP180;6932;51.438;5.470;2023-12-04T13:27:53;99915.00;;;8.60
15079;BMP180;6932;51.438;5.470;2023-12-04T13:30:19;99924.00;;;8.60
15079;BMP180;6932;51.438;5.470;2023-12-04T13:32:45;99912.00;;;8.60
15079;BMP180;6932;51.438;5.470;2023-12-04T13:35:11;99906.00;;;8.60
15079;BMP180;6932;51.438;5.470;2023-12-04T13:37:37;99898.00;;;8.60
15079;BMP180;6932;51.438;5.470;2023-12-04T13:40:05;99900.00;;;8.60
15079;BMP180;6932;51.438;5.470;2023-12-04T13:42:41;99891.00;;;8.60
15079;BMP180;6932;51.438;5.470;2023-12-04T13:45:25;99887.00;;;8.60
15079;BMP180;6932;51.438;5.470;2023-12-04T13:47:51;99886.00;;;8.60
15079;BMP180;6932;51.438;5.470;2023-12-04T13:50:18;99875.00;;;8.60
15079;BMP180;6932;51.438;5.470;2023-12-04T13:52:44;99890.00;;;8.60
15079;BMP180;6932;51.438;5.470;2023-12-04T13:55:10;99872.00;;;8.70
15079;BMP180;6932;51.438;5.470;2023-12-04T13:57:45;99875.00;;;8.60
15079;BMP180;6932;51.438;5.470;2023-12-04T14:00:26;99870.00;;;8.60
15079;BMP180;6932;51.438;5.470;2023-12-04T14:02:52;99867.00;;;8.70
15079;BMP180;6932;51.438;5.470;2023-12-04T14:05:30;99860.00;;;8.70
15079;BMP180;6932;51.438;5.470;2023-12-04T14:07:56;99856.00;;;8.70
15079;BMP180;6932;51.438;5.470;2023-12-04T14:10:24;99853.00;;;8.70
15079;BMP180;6932;51.438;5.470;2023-12-04T14:12:52;99845.00;;;8.70
15079;BMP180;6932;51.438;5.470;2023-12-04T14:15:18;99846.00;;;8.70
15079;BMP180;6932;51.438;5.470;2023-12-04T14:17:44;99854.00;;;8.70
15079;BMP180;6932;51.438;5.470;2023-12-04T14:20:12;99838.00;;;8.70
15079;BMP180;6932;51.438;5.470;2023-12-04T14:22:45;99842.00;;;8.70
15079;BMP180;6932;51.438;5.470;2023-12-04T14:25:12;99834.00;;;8.70
15079;BMP180;6932;51.438;5.470;2023-12-04T14:27:37;99830.00;;;8.70